Time;durP1;ratioP1;P1;durP2;ratioP2;P2;SDS_P1;SDS_P2;PMS_P1;PMS_P2;Temp;Humidity;BMP_temperature;BMP_pressure;BME280_temperature;BME280_humidity;BME280_pressure;Samples;Min_cycle;Max_cycle;Signal;HPM_P1;HPM_P2
2021/06/21 00:00:44;;;;;;;10.47;3.10;;;19.70;99.90;;;;;;5072381;28;20422;-73
2021/06/21 00:03:29;;;;;;;5.93;1.70;;;19.80;99.90;;;;;;5065138;28;20467;-72
2021/06/21 00:06:15;;;;;;;7.70;2.60;;;19.80;99.90;;;;;;5063512;28;20439;-73
2021/06/21 00:09:01;;;;;;;12.13;3.10;;;19.70;99.90;;;;;;5069441;28;20521;-73
2021/06/21 00:11:48;;;;;;;6.60;2.90;;;19.60;99.90;;;;;;5062959;28;20827;-73
2021/06/21 00:14:34;;;;;;;5.73;2.50;;;19.70;99.90;;;;;;5070364;28;20578;-72
2021/06/21 00:17:19;;;;;;;7.00;2.43;;;19.70;99.90;;;;;;5059949;28;20423;-73
2021/06/21 00:20:06;;;;;;;5.83;2.37;;;19.70;99.90;;;;;;5072031;28;20554;-73
2021/06/21 00:22:53;;;;;;;7.00;1.87;;;19.70;99.90;;;;;;5069899;28;20404;-72
2021/06/21 00:25:39;;;;;;;6.10;2.00;;;19.70;99.90;;;;;;5062461;28;20415;-73
2021/06/21 00:28:26;;;;;;;6.27;2.50;;;19.60;99.90;;;;;;5059032;28;20954;-73
2021/06/21 00:31:12;;;;;;;5.27;2.10;;;19.50;99.90;;;;;;5063856;28;20471;-72
2021/06/21 00:33:57;;;;;;;8.30;1.87;;;19.50;99.90;;;;;;5061988;28;20455;-72
2021/06/21 00:36:43;;;;;;;6.40;1.70;;;19.40;99.90;;;;;;5058911;28;20432;-72
2021/06/21 00:39:29;;;;;;;6.03;2.00;;;19.50;99.90;;;;;;5065257;28;20477;-72
2021/06/21 00:42:15;;;;;;;8.27;2.03;;;19.50;99.90;;;;;;5061305;28;21084;-72
2021/06/21 00:45:02;;;;;;;4.87;1.40;;;19.30;99.90;;;;;;5063162;28;20991;-72
2021/06/21 00:47:48;;;;;;;9.50;1.93;;;19.40;99.90;;;;;;5055650;28;20779;-72
2021/06/21 00:50:34;;;;;;;4.23;1.37;;;19.40;99.90;;;;;;5064718;28;20583;-73
2021/06/21 00:53:21;;;;;;;6.50;1.80;;;19.20;99.90;;;;;;5066280;28;20435;-72
2021/06/21 00:56:07;;;;;;;8.10;1.60;;;19.20;99.90;;;;;;5060886;28;20428;-72
2021/06/21 00:58:58;;;;;;;9.30;1.83;;;19.20;99.90;;;;;;5064318;28;20427;-73
2021/06/21 01:01:45;;;;;;;10.57;1.70;;;19.20;99.90;;;;;;5056742;28;20458;-72
2021/06/21 01:04:31;;;;;;;6.70;1.80;;;19.10;99.90;;;;;;5058148;28;20459;-72
2021/06/21 01:07:17;;;;;;;8.90;1.73;;;19.20;99.90;;;;;;5070684;28;20424;-73
2021/06/21 01:10:03;;;;;;;10.07;1.73;;;19.20;99.90;;;;;;5061819;28;20537;-72
2021/06/21 01:13:03;;;;;;;4.93;1.27;;;19.20;99.90;;;;;;5069861;28;20432;-73
2021/06/21 01:15:57;;;;;;;5.10;1.80;;;19.20;99.90;;;;;;5062634;28;20428;-73
2021/06/21 01:18:53;;;;;;;9.73;2.70;;;19.30;99.90;;;;;;5064283;28;20446;-73
2021/06/21 01:22:23;;;;;;;15.93;1.63;;;19.40;99.90;;;;;;5061922;28;20418;-73
2021/06/21 01:25:23;;;;;;;7.37;1.30;;;19.40;99.90;;;;;;4985754;28;20981;-73
2021/06/21 01:28:19;;;;;;;6.53;1.90;;;19.50;99.90;;;;;;5063331;28;20501;-72
2021/06/21 01:31:12;;;;;;;4.73;1.53;;;19.30;99.90;;;;;;5066362;28;20463;-73
2021/06/21 01:33:59;;;;;;;11.43;1.93;;;19.40;99.90;;;;;;5067829;28;20445;-72
2021/06/21 01:36:49;;;;;;;4.30;1.57;;;19.40;99.90;;;;;;5065975;28;20419;-72
2021/06/21 01:39:36;;;;;;;6.10;1.67;;;19.50;99.90;;;;;;5060882;28;20439;-73
2021/06/21 01:42:24;;;;;;;6.37;1.90;;;19.50;99.90;;;;;;5063228;28;20407;-73
2021/06/21 01:45:12;;;;;;;5.90;1.80;;;19.50;99.90;;;;;;5061613;28;20443;-72
2021/06/21 01:47:59;;;;;;;11.03;2.07;;;19.40;99.90;;;;;;5062099;28;20600;-73
2021/06/21 01:50:48;;;;;;;6.17;2.00;;;19.40;99.90;;;;;;5068804;28;20925;-72
2021/06/21 01:53:35;;;;;;;9.67;2.10;;;19.40;99.90;;;;;;5062220;28;20434;-73
2021/06/21 01:56:24;;;;;;;9.23;2.40;;;19.20;99.90;;;;;;5066694;28;20561;-72
2021/06/21 01:59:11;;;;;;;12.47;2.70;;;19.10;99.90;;;;;;5070570;28;20440;-72
2021/06/21 02:02:00;;;;;;;7.93;2.03;;;19.10;99.90;;;;;;5064148;28;20416;-72
2021/06/21 02:04:49;;;;;;;8.07;2.13;;;19.20;99.90;;;;;;5070020;28;20493;-72
2021/06/21 02:07:37;;;;;;;7.77;2.20;;;19.20;99.90;;;;;;5062835;28;20416;-73
2021/06/21 02:10:23;;;;;;;15.33;3.23;;;19.20;99.90;;;;;;5064332;28;20475;-72
2021/06/21 02:13:10;;;;;;;10.33;2.07;;;19.20;99.90;;;;;;5067019;28;20501;-72
2021/06/21 02:15:56;;;;;;;10.30;2.70;;;19.20;99.90;;;;;;5069936;28;20497;-72
2021/06/21 02:18:43;;;;;;;7.33;2.47;;;19.10;99.90;;;;;;5069252;28;20442;-73
2021/06/21 02:21:29;;;;;;;9.60;2.83;;;19.10;99.90;;;;;;5052230;28;20423;-72
2021/06/21 02:24:18;;;;;;;5.50;1.93;;;19.00;99.90;;;;;;5062126;28;20497;-73
2021/06/21 02:27:06;;;;;;;11.57;2.73;;;18.90;99.90;;;;;;5066994;28;20438;-72
2021/06/21 02:29:53;;;;;;;9.00;2.10;;;18.90;99.90;;;;;;5063845;28;20423;-73
2021/06/21 02:32:41;;;;;;;8.13;1.93;;;18.90;99.90;;;;;;5057012;28;20565;-73
2021/06/21 02:35:28;;;;;;;9.27;1.97;;;19.00;99.90;;;;;;5065380;28;20514;-73
2021/06/21 02:38:14;;;;;;;11.63;2.33;;;19.00;99.90;;;;;;5065036;28;20427;-72
2021/06/21 02:41:01;;;;;;;7.57;1.77;;;19.00;99.90;;;;;;5068494;28;20481;-73
2021/06/21 02:43:47;;;;;;;7.43;1.67;;;19.00;99.90;;;;;;5061831;28;20443;-72
2021/06/21 02:46:32;;;;;;;9.13;1.50;;;18.90;99.90;;;;;;5073422;28;20430;-72
2021/06/21 02:49:18;;;;;;;16.60;2.63;;;18.80;99.90;;;;;;5073322;28;20423;-72
2021/06/21 02:52:14;;;;;;;13.50;2.10;;;18.70;99.90;;;;;;5068388;28;20466;-72
2021/06/21 02:55:09;;;;;;;11.23;2.80;;;18.80;99.90;;;;;;5065120;28;20822;-73
2021/06/21 02:58:01;;;;;;;8.07;2.03;;;18.80;99.90;;;;;;5071845;28;20420;-72
2021/06/21 03:00:49;;;;;;;10.97;2.67;;;18.70;99.90;;;;;;5073863;28;21136;-73
2021/06/21 03:03:39;;;;;;;15.10;2.60;;;18.70;99.90;;;;;;5062128;28;20585;-72
2021/06/21 03:06:27;;;;;;;16.30;2.77;;;18.70;99.90;;;;;;5060542;28;20431;-72
2021/06/21 03:09:13;;;;;;;14.73;2.57;;;18.70;99.90;;;;;;5061181;28;20975;-72
2021/06/21 03:12:01;;;;;;;9.23;1.90;;;18.70;99.90;;;;;;5066405;28;20628;-72
2021/06/21 03:14:48;;;;;;;7.33;2.20;;;18.70;99.90;;;;;;5059248;28;20443;-72
2021/06/21 03:17:36;;;;;;;19.03;3.07;;;18.80;99.90;;;;;;5065423;28;20467;-72
2021/06/21 03:20:23;;;;;;;9.33;2.60;;;18.80;99.90;;;;;;5066850;28;20417;-72
2021/06/21 03:23:09;;;;;;;11.53;2.60;;;18.80;99.90;;;;;;5066085;28;20497;-72
2021/06/21 03:25:57;;;;;;;12.40;2.93;;;18.60;99.90;;;;;;5064445;28;20933;-72
2021/06/21 03:28:43;;;;;;;17.50;3.73;;;18.60;99.90;;;;;;5070276;28;20589;-72
2021/06/21 03:31:30;;;;;;;7.80;2.40;;;18.60;99.90;;;;;;5063001;28;20460;-72
2021/06/21 03:34:17;;;;;;;18.80;3.50;;;18.60;99.90;;;;;;5070890;28;20450;-72
2021/06/21 03:37:03;;;;;;;10.27;2.83;;;18.60;99.90;;;;;;5068718;28;20434;-72
2021/06/21 03:39:49;;;;;;;15.00;3.23;;;18.40;99.90;;;;;;5066199;28;20474;-72
2021/06/21 03:42:34;;;;;;;12.90;3.63;;;18.50;99.90;;;;;;5058976;28;20466;-72
2021/06/21 03:45:20;;;;;;;12.03;3.30;;;18.40;99.90;;;;;;5071004;28;20438;-72
2021/06/21 03:48:08;;;;;;;23.70;3.67;;;18.40;99.90;;;;;;5072028;28;20434;-72
2021/06/21 03:50:54;;;;;;;11.93;4.50;;;18.40;99.90;;;;;;5068121;28;20554;-72
2021/06/21 03:53:40;;;;;;;20.40;3.10;;;18.50;99.90;;;;;;5065399;28;20537;-72
2021/06/21 03:56:25;;;;;;;9.23;2.90;;;18.60;99.90;;;;;;5062297;28;20864;-73
2021/06/21 03:59:11;;;;;;;19.83;3.97;;;18.60;99.90;;;;;;5060355;28;20862;-72
2021/06/21 04:01:57;;;;;;;16.30;3.70;;;18.50;99.90;;;;;;5059369;28;20929;-72
2021/06/21 04:04:44;;;;;;;13.63;4.23;;;18.60;99.90;;;;;;5065031;28;20462;-72
2021/06/21 04:07:30;;;;;;;7.00;3.00;;;18.70;99.90;;;;;;5061093;28;20908;-73
2021/06/21 04:10:18;;;;;;;9.17;3.37;;;18.80;99.90;;;;;;5066518;28;20435;-72
2021/06/21 04:13:05;;;;;;;13.40;3.70;;;18.90;99.90;;;;;;5061423;28;20426;-72
2021/06/21 04:15:50;;;;;;;9.33;2.50;;;18.90;99.90;;;;;;5064719;28;20949;-73
2021/06/21 04:18:36;;;;;;;15.60;3.20;;;18.90;99.90;;;;;;5061405;28;20498;-72
2021/06/21 04:21:23;;;;;;;12.03;3.10;;;19.00;99.90;;;;;;5065073;28;20512;-73
2021/06/21 04:24:09;;;;;;;12.63;2.80;;;19.00;99.90;;;;;;5067649;28;20443;-72
2021/06/21 04:26:55;;;;;;;7.10;2.83;;;19.00;99.90;;;;;;5066666;28;21229;-73
2021/06/21 04:29:41;;;;;;;11.67;4.53;;;19.00;99.90;;;;;;5060648;28;20420;-72
2021/06/21 04:32:26;;;;;;;8.13;2.73;;;19.00;99.90;;;;;;5062002;28;21068;-73
2021/06/21 04:35:14;;;;;;;13.67;2.50;;;19.00;99.90;;;;;;5056242;28;20448;-73
2021/06/21 04:38:01;;;;;;;14.17;3.57;;;19.10;99.90;;;;;;5065701;28;20395;-72
2021/06/21 04:40:47;;;;;;;12.27;3.23;;;19.20;99.90;;;;;;5070171;28;20561;-73
2021/06/21 04:43:33;;;;;;;18.93;3.50;;;19.30;99.90;;;;;;5066949;28;20504;-72
2021/06/21 04:46:18;;;;;;;13.30;3.80;;;19.40;99.90;;;;;;5067725;28;21006;-73
2021/06/21 04:49:05;;;;;;;13.97;2.80;;;19.40;99.90;;;;;;5071222;28;21057;-72
2021/06/21 04:51:52;;;;;;;8.37;2.60;;;19.40;99.90;;;;;;5067379;28;20828;-73
2021/06/21 04:54:39;;;;;;;5.50;2.37;;;19.50;99.90;;;;;;5062435;28;20448;-73
2021/06/21 04:57:25;;;;;;;13.03;2.97;;;19.40;99.90;;;;;;5070285;28;20422;-73
2021/06/21 05:00:13;;;;;;;8.70;2.70;;;19.50;99.90;;;;;;5065811;28;20438;-72
2021/06/21 05:02:59;;;;;;;8.90;3.40;;;19.60;99.90;;;;;;5070742;28;20428;-72
2021/06/21 05:05:45;;;;;;;12.77;2.43;;;19.70;99.90;;;;;;5067927;22;20480;-71
2021/06/21 05:08:30;;;;;;;10.67;2.63;;;19.80;99.90;;;;;;5030345;28;20815;-70
2021/06/21 05:11:17;;;;;;;8.83;2.80;;;19.90;99.90;;;;;;5035310;28;20794;-71
2021/06/21 05:14:04;;;;;;;9.23;2.53;;;19.90;99.90;;;;;;5030747;28;20424;-71
2021/06/21 05:16:49;;;;;;;8.87;2.13;;;20.00;99.90;;;;;;5031806;28;20503;-71
2021/06/21 05:19:35;;;;;;;7.00;2.63;;;20.00;99.90;;;;;;5031297;28;20434;-71
2021/06/21 05:22:21;;;;;;;10.60;3.10;;;20.00;99.90;;;;;;5030356;28;20414;-71
2021/06/21 05:25:07;;;;;;;11.87;2.30;;;20.10;99.90;;;;;;5033959;28;20516;-71
2021/06/21 05:27:54;;;;;;;10.70;2.47;;;20.20;99.90;;;;;;5037341;28;20420;-71
2021/06/21 05:30:40;;;;;;;12.87;2.67;;;20.30;99.90;;;;;;5033618;28;20503;-71
2021/06/21 05:33:26;;;;;;;7.10;2.20;;;20.30;99.90;;;;;;5042505;28;20422;-71
2021/06/21 05:36:12;;;;;;;13.03;2.57;;;20.30;99.90;;;;;;5029357;28;20468;-71
2021/06/21 05:38:57;;;;;;;8.53;2.10;;;20.40;99.90;;;;;;5034822;28;20426;-71
2021/06/21 05:41:43;;;;;;;7.60;2.30;;;20.50;99.90;;;;;;5031408;28;20915;-71
2021/06/21 05:44:30;;;;;;;10.03;2.10;;;20.50;99.90;;;;;;5032145;28;20508;-69
2021/06/21 05:47:16;;;;;;;9.97;2.17;;;20.50;99.90;;;;;;5037249;28;20433;-71
2021/06/21 05:50:02;;;;;;;7.87;2.10;;;20.50;99.90;;;;;;5032254;28;20936;-71
2021/06/21 05:52:49;;;;;;;7.20;1.93;;;20.30;99.90;;;;;;5035125;28;21006;-71
2021/06/21 05:55:35;;;;;;;10.00;1.83;;;20.30;99.90;;;;;;5030504;28;20999;-71
2021/06/21 05:58:20;;;;;;;17.10;2.10;;;20.30;99.90;;;;;;5034415;28;20544;-70
2021/06/21 06:01:07;;;;;;;9.10;2.20;;;20.40;99.90;;;;;;5039290;28;20448;-71
2021/06/21 06:03:53;;;;;;;10.27;2.50;;;20.40;99.90;;;;;;5031928;28;20421;-71
2021/06/21 06:06:38;;;;;;;10.20;2.07;;;20.20;99.90;;;;;;5029409;28;20520;-71
2021/06/21 06:09:24;;;;;;;15.53;3.30;;;20.30;99.90;;;;;;5034052;28;20805;-71
2021/06/21 06:12:10;;;;;;;7.53;2.70;;;20.40;99.90;;;;;;5033998;28;20503;-71
2021/06/21 06:14:56;;;;;;;6.27;2.20;;;20.50;99.90;;;;;;5038810;28;20516;-71
2021/06/21 06:17:43;;;;;;;7.97;2.00;;;20.70;99.90;;;;;;5038820;28;20448;-71
2021/06/21 06:20:29;;;;;;;9.13;2.07;;;20.60;99.90;;;;;;5036140;28;20430;-70
2021/06/21 06:23:15;;;;;;;5.67;2.07;;;20.70;99.90;;;;;;5043665;28;20440;-70
2021/06/21 06:26:00;;;;;;;9.97;3.30;;;20.90;99.90;;;;;;5036299;28;20449;-71
2021/06/21 06:28:46;;;;;;;9.43;2.33;;;21.00;99.90;;;;;;5034549;28;20943;-71
2021/06/21 06:31:32;;;;;;;9.23;2.27;;;21.10;99.90;;;;;;5039047;28;20940;-71
2021/06/21 06:34:19;;;;;;;12.73;2.90;;;21.10;99.90;;;;;;5039643;28;20586;-71
2021/06/21 06:37:06;;;;;;;3.10;1.60;;;21.10;99.90;;;;;;5038973;28;20445;-71
2021/06/21 06:39:51;;;;;;;10.93;2.17;;;21.00;99.90;;;;;;5035991;28;20428;-71
2021/06/21 06:42:37;;;;;;;12.30;3.00;;;21.00;99.90;;;;;;5038176;28;20426;-71
2021/06/21 06:45:23;;;;;;;9.30;1.67;;;21.10;99.90;;;;;;5043245;28;20457;-70
2021/06/21 06:48:09;;;;;;;11.93;2.50;;;21.20;99.90;;;;;;5037524;28;20444;-70
2021/06/21 06:50:56;;;;;;;7.30;2.80;;;21.40;99.90;;;;;;5039147;28;20418;-71
2021/06/21 06:53:44;;;;;;;9.30;2.00;;;21.30;99.90;;;;;;5034006;28;20465;-70
2021/06/21 06:59:36;;;;;;;11.03;2.10;;;21.30;99.90;;;;;;5041844;28;20456;-71
2021/06/21 07:02:22;;;;;;;9.33;2.50;;;21.30;99.90;;;;;;5035572;28;20954;-71
2021/06/21 07:05:10;;;;;;;12.43;2.63;;;21.20;99.90;;;;;;5039862;28;20988;-71
2021/06/21 07:07:58;;;;;;;8.10;2.50;;;21.20;99.90;;;;;;5034180;28;20533;-71
2021/06/21 07:10:44;;;;;;;7.27;2.50;;;21.20;99.90;;;;;;5033782;28;20421;-71
2021/06/21 07:13:29;;;;;;;6.87;2.50;;;21.20;99.90;;;;;;5040049;28;21018;-71
2021/06/21 07:16:15;;;;;;;14.13;2.53;;;21.40;99.90;;;;;;5033709;28;20446;-71
2021/06/21 07:19:01;;;;;;;8.90;2.63;;;21.40;99.90;;;;;;5035608;28;20427;-71
2021/06/21 07:21:47;;;;;;;10.73;2.23;;;21.50;99.90;;;;;;5034867;28;20426;-71
2021/06/21 07:24:34;;;;;;;8.17;2.67;;;21.50;99.90;;;;;;5039542;28;20444;-71
2021/06/21 07:27:20;;;;;;;17.00;2.70;;;21.40;99.90;;;;;;5039007;28;20422;-70
2021/06/21 07:30:07;;;;;;;17.20;3.03;;;21.40;99.90;;;;;;5028057;28;20493;-71
2021/06/21 07:32:53;;;;;;;5.57;2.37;;;21.60;99.90;;;;;;5037542;28;20470;-70
2021/06/21 07:35:40;;;;;;;9.07;2.30;;;21.60;99.90;;;;;;5033849;28;20536;-74
2021/06/21 07:38:26;;;;;;;11.47;2.60;;;21.60;99.90;;;;;;5038753;28;20583;-74
2021/06/21 07:41:13;;;;;;;7.30;2.30;;;21.60;99.90;;;;;;5030818;28;20512;-73
2021/06/21 07:43:59;;;;;;;5.70;2.17;;;21.80;99.90;;;;;;5032390;28;20829;-72
2021/06/21 07:46:45;;;;;;;12.73;3.23;;;22.00;99.90;;;;;;5037047;28;20436;-74
2021/06/21 07:49:30;;;;;;;4.00;2.13;;;22.20;99.90;;;;;;5037116;28;20487;-73
2021/06/21 07:52:16;;;;;;;9.20;2.17;;;22.20;99.90;;;;;;5030729;28;20816;-73
2021/06/21 07:55:02;;;;;;;8.13;1.90;;;22.10;99.90;;;;;;5033907;28;20477;-73
2021/06/21 07:57:48;;;;;;;10.10;2.73;;;22.10;99.90;;;;;;5034530;28;20430;-72
2021/06/21 08:00:38;;;;;;;6.23;1.97;;;22.20;99.90;;;;;;5034775;28;20529;-73
2021/06/21 08:03:24;;;;;;;5.97;2.23;;;22.10;99.90;;;;;;5036051;28;20445;-73
2021/06/21 08:06:11;;;;;;;4.13;1.87;;;22.20;99.90;;;;;;5034667;28;20509;-72
2021/06/21 08:08:57;;;;;;;5.37;2.03;;;22.40;99.90;;;;;;5033352;28;20512;-73
2021/06/21 08:11:42;;;;;;;6.53;2.83;;;22.70;99.90;;;;;;5029638;28;20480;-72
2021/06/21 08:14:29;;;;;;;6.73;2.10;;;22.60;99.90;;;;;;5031071;28;20463;-72
2021/06/21 08:17:15;;;;;;;6.00;2.00;;;22.60;99.90;;;;;;5035308;28;20443;-72
2021/06/21 08:20:01;;;;;;;7.93;1.83;;;22.60;99.90;;;;;;5038151;28;20455;-72
2021/06/21 08:22:46;;;;;;;5.23;1.80;;;22.70;99.90;;;;;;5037394;28;20438;-72
2021/06/21 08:25:32;;;;;;;3.53;1.60;;;22.70;99.90;;;;;;5032336;28;20470;-72
2021/06/21 08:28:17;;;;;;;4.60;1.50;;;22.80;99.90;;;;;;5040810;28;20442;-73
2021/06/21 08:31:05;;;;;;;4.77;1.60;;;23.00;99.90;;;;;;5032645;28;20608;-73
2021/06/21 08:33:50;;;;;;;6.97;2.10;;;23.00;99.90;;;;;;5031707;28;20485;-72
2021/06/21 08:36:36;;;;;;;8.00;1.83;;;23.10;99.90;;;;;;5038294;28;20488;-72
2021/06/21 08:39:21;;;;;;;7.77;2.00;;;23.10;99.90;;;;;;5032960;28;20523;-73
2021/06/21 08:42:08;;;;;;;6.97;2.40;;;23.10;99.90;;;;;;5042195;28;21176;-72
2021/06/21 08:44:53;;;;;;;5.50;1.90;;;23.20;99.90;;;;;;5030426;28;20480;-73
2021/06/21 08:47:40;;;;;;;10.37;2.93;;;23.40;99.90;;;;;;5033476;28;20574;-72
2021/06/21 08:50:27;;;;;;;5.20;2.27;;;23.40;99.90;;;;;;5034984;28;20510;-72
2021/06/21 08:53:13;;;;;;;7.20;2.00;;;23.30;99.90;;;;;;5030299;28;20564;-73
2021/06/21 08:55:58;;;;;;;8.77;2.40;;;23.30;99.90;;;;;;5035533;28;20478;-72
2021/06/21 08:58:44;;;;;;;7.93;1.93;;;23.30;99.90;;;;;;5029801;28;20493;-73
2021/06/21 09:01:30;;;;;;;7.30;2.00;;;23.00;99.90;;;;;;5037906;28;20504;-73
2021/06/21 09:04:18;;;;;;;6.70;2.10;;;22.90;99.90;;;;;;5036315;28;20822;-72
2021/06/21 09:07:18;;;;;;;7.93;2.00;;;23.10;99.90;;;;;;5029968;28;20446;-72
2021/06/21 09:10:08;;;;;;;3.60;1.73;;;23.20;99.90;;;;;;5034100;28;20438;-72
2021/06/21 09:13:10;;;;;;;5.30;2.00;;;23.20;99.90;;;;;;5032100;28;20541;-72
2021/06/21 09:15:56;;;;;;;5.50;1.47;;;23.10;99.90;;;;;;5032459;28;20597;-73
2021/06/21 09:18:42;;;;;;;4.40;1.87;;;23.20;99.90;;;;;;5037658;28;21007;-72
2021/06/21 09:21:32;;;;;;;6.33;1.70;;;23.10;99.90;;;;;;5033000;28;20877;-72
2021/06/21 09:24:20;;;;;;;5.27;1.80;;;23.10;99.90;;;;;;5029124;28;20465;-73
2021/06/21 09:27:07;;;;;;;6.07;1.97;;;23.00;99.90;;;;;;5038635;28;20940;-72
2021/06/21 09:29:53;;;;;;;4.87;2.10;;;23.10;99.90;;;;;;5032941;28;20451;-72
2021/06/21 09:32:49;;;;;;;7.63;2.17;;;23.00;99.90;;;;;;5037310;28;20458;-72
2021/06/21 09:35:40;;;;;;;3.00;1.60;;;22.80;99.90;;;;;;5027777;28;20469;-72
2021/06/21 09:38:27;;;;;;;9.27;2.20;;;22.90;99.90;;;;;;5031968;28;20844;-72
2021/06/21 09:41:12;;;;;;;7.90;2.70;;;22.80;99.90;;;;;;5037344;28;20473;-73
2021/06/21 09:43:58;;;;;;;17.13;2.30;;;22.70;99.90;;;;;;5029197;28;20443;-72
2021/06/21 09:46:44;;;;;;;5.67;2.10;;;22.80;99.90;;;;;;5034895;28;20492;-72
2021/06/21 09:49:29;;;;;;;6.70;2.23;;;22.70;99.90;;;;;;5031212;28;20460;-72
2021/06/21 09:52:33;;;;;;;7.17;1.80;;;22.70;99.90;;;;;;5032547;28;20446;-72
2021/06/21 09:55:23;;;;;;;9.97;2.10;;;22.80;99.90;;;;;;5028768;28;21004;-72
2021/06/21 09:58:12;;;;;;;6.77;2.37;;;22.90;99.90;;;;;;5028375;28;20450;-72
2021/06/21 10:01:11;;;;;;;4.90;1.80;;;22.90;99.90;;;;;;5034304;28;20459;-71
2021/06/21 10:03:56;;;;;;;5.20;1.97;;;22.90;99.90;;;;;;5025871;28;20463;-72
2021/06/21 10:06:42;;;;;;;8.73;1.90;;;22.90;99.90;;;;;;5033022;28;20449;-72
2021/06/21 10:09:28;;;;;;;12.53;2.23;;;22.80;99.90;;;;;;5035411;28;20519;-72
2021/06/21 10:12:21;;;;;;;5.53;1.80;;;23.00;99.90;;;;;;5031749;28;20529;-73
2021/06/21 10:15:10;;;;;;;4.53;2.00;;;23.10;99.90;;;;;;5029288;28;20458;-72
2021/06/21 10:17:56;;;;;;;7.97;2.27;;;23.20;99.90;;;;;;5036334;28;20516;-71
2021/06/21 10:20:41;;;;;;;8.67;2.80;;;23.30;99.90;;;;;;5029062;28;20507;-72
2021/06/21 10:23:29;;;;;;;54.70;13.00;;;23.10;99.90;;;;;;5036622;28;20437;-73
2021/06/21 10:26:15;;;;;;;29.20;6.80;;;23.00;99.90;;;;;;5035707;28;20997;-72
2021/06/21 10:29:02;;;;;;;6.00;2.03;;;23.00;99.90;;;;;;5035565;28;20566;-73
2021/06/21 10:31:48;;;;;;;6.32;1.90;;;23.00;99.90;;;;;;5034025;28;20559;-72
2021/06/21 10:34:35;;;;;;;5.57;2.10;;;23.00;99.90;;;;;;5027324;28;20239;-72
2021/06/21 10:37:22;;;;;;;5.00;2.00;;;23.00;99.90;;;;;;5035246;28;20446;-72
2021/06/21 10:40:10;;;;;;;5.63;1.93;;;23.10;99.90;;;;;;5035489;28;20454;-72
2021/06/21 10:42:56;;;;;;;7.10;2.30;;;23.30;99.90;;;;;;5030919;28;20455;-73
2021/06/21 10:45:43;;;;;;;11.55;2.03;;;23.70;99.90;;;;;;5032733;28;20483;-72
2021/06/21 10:48:29;;;;;;;6.23;2.10;;;23.80;99.90;;;;;;5034673;28;20212;-72
2021/06/21 10:51:30;;;;;;;4.00;1.83;;;24.00;99.90;;;;;;5031918;28;20453;-71
2021/06/21 10:54:23;;;;;;;7.40;2.63;;;23.80;99.90;;;;;;5027558;28;20469;-72
2021/06/21 10:57:19;;;;;;;8.07;2.37;;;23.90;99.90;;;;;;5029235;28;20501;-72
2021/06/21 11:00:15;;;;;;;9.90;2.30;;;23.80;99.90;;;;;;5038120;28;20928;-72
2021/06/21 11:03:03;;;;;;;5.90;2.00;;;23.80;99.90;;;;;;5034698;28;20454;-71
2021/06/21 11:05:50;;;;;;;19.00;5.87;;;23.80;99.90;;;;;;5036810;28;20482;-73
2021/06/21 11:08:47;;;;;;;10.40;2.97;;;24.20;99.90;;;;;;5035191;28;20450;-72
2021/06/21 11:11:42;;;;;;;9.73;2.37;;;24.30;99.90;;;;;;5033782;28;21014;-73
2021/06/21 11:14:28;;;;;;;4.40;1.90;;;24.50;99.90;;;;;;5037402;28;20474;-72
2021/06/21 11:17:20;;;;;;;3.73;2.43;;;24.50;98.00;;;;;;5032818;28;20430;-73
2021/06/21 11:20:44;;;;;;;6.47;2.33;;;24.40;97.70;;;;;;5032701;28;20459;-72
2021/06/21 11:23:41;;;;;;;5.47;2.10;;;24.30;98.70;;;;;;5038909;28;20612;-72
2021/06/21 11:27:00;;;;;;;5.90;2.37;;;24.30;95.80;;;;;;5034143;28;20541;-72
2021/06/21 11:29:49;;;;;;;13.63;2.30;;;24.40;96.30;;;;;;5037172;28;20608;-73
2021/06/21 11:32:54;;;;;;;5.10;2.23;;;24.60;95.80;;;;;;5030777;28;20478;-73
2021/06/21 11:35:58;;;;;;;9.30;2.30;;;24.50;96.50;;;;;;5036430;28;21004;-72
2021/06/21 11:38:46;;;;;;;3.73;2.60;;;24.70;93.00;;;;;;5030886;28;20463;-72
2021/06/21 11:41:32;;;;;;;5.20;2.60;;;24.70;92.90;;;;;;5033564;28;21254;-73
2021/06/21 11:44:48;;;;;;;4.17;1.77;;;24.90;92.50;;;;;;5030508;28;20494;-73
2021/06/21 11:47:35;;;;;;;5.23;2.10;;;25.20;93.20;;;;;;5034963;28;20471;-72
2021/06/21 11:50:21;;;;;;;3.67;1.67;;;25.20;87.80;;;;;;5035846;28;20603;-72
2021/06/21 11:53:09;;;;;;;7.10;3.27;;;25.30;84.50;;;;;;5030017;28;20469;-72
2021/06/21 11:55:57;;;;;;;35.23;6.40;;;25.50;88.30;;;;;;5029742;28;20948;-72
2021/06/21 11:58:49;;;;;;;3.23;1.90;;;25.80;85.10;;;;;;5031466;28;20446;-72
2021/06/21 12:01:35;;;;;;;7.13;2.10;;;25.60;75.40;;;;;;5029750;28;20557;-72
2021/06/21 12:04:27;;;;;;;15.63;4.07;;;25.70;75.50;;;;;;5037612;28;20853;-73
2021/06/21 12:07:29;;;;;;;8.97;2.13;;;25.90;76.40;;;;;;5031660;28;20885;-72
2021/06/21 12:10:16;;;;;;;5.53;2.07;;;26.20;69.70;;;;;;5034083;28;20977;-73
2021/06/21 12:13:04;;;;;;;6.13;2.17;;;26.20;71.00;;;;;;5036261;28;20464;-72
2021/06/21 12:15:49;;;;;;;5.97;1.73;;;26.50;69.90;;;;;;5037843;28;20474;-73
2021/06/21 12:18:35;;;;;;;8.73;1.70;;;26.60;67.70;;;;;;5033581;28;20968;-72
2021/06/21 12:21:31;;;;;;;10.37;1.97;;;26.70;68.80;;;;;;5032889;28;20463;-73
2021/06/21 12:24:19;;;;;;;3.90;1.60;;;26.80;68.30;;;;;;5033457;28;20428;-72
2021/06/21 12:27:06;;;;;;;3.30;1.60;;;26.50;65.60;;;;;;5036458;28;20498;-72
2021/06/21 12:29:54;;;;;;;3.80;1.70;;;26.30;65.50;;;;;;5030814;28;20788;-73
2021/06/21 12:32:40;;;;;;;4.13;1.70;;;26.40;69.80;;;;;;5036930;28;20458;-72
2021/06/21 12:35:26;;;;;;;5.17;2.23;;;26.30;64.00;;;;;;5037480;28;20453;-73
2021/06/21 12:38:15;;;;;;;5.77;1.53;;;26.30;65.60;;;;;;5032372;28;20446;-72
2021/06/21 12:41:11;;;;;;;8.93;2.30;;;26.60;65.90;;;;;;5030733;28;20429;-72
2021/06/21 12:44:00;;;;;;;11.27;1.63;;;26.90;60.10;;;;;;5030852;28;20443;-72
2021/06/21 12:46:49;;;;;;;7.33;1.50;;;27.00;62.80;;;;;;5029362;28;20724;-72
2021/06/21 12:49:35;;;;;;;3.33;1.57;;;27.30;61.20;;;;;;5028324;28;20423;-72
2021/06/21 12:52:23;;;;;;;6.50;1.70;;;27.50;62.70;;;;;;5028305;28;20451;-72
2021/06/21 12:55:10;;;;;;;5.40;1.83;;;27.40;55.40;;;;;;5031411;28;20487;-72
2021/06/21 12:57:58;;;;;;;4.40;1.90;;;27.20;56.00;;;;;;5032515;28;20563;-72
2021/06/21 13:00:45;;;;;;;3.70;1.87;;;27.00;58.00;;;;;;5030621;28;21010;-72
2021/06/21 13:03:43;;;;;;;3.73;1.73;;;26.80;56.40;;;;;;5040904;28;20459;-72
2021/06/21 13:06:36;;;;;;;3.77;2.10;;;27.20;58.20;;;;;;5028529;28;20459;-72
2021/06/21 13:09:22;;;;;;;6.80;2.20;;;27.50;59.10;;;;;;5034674;28;20440;-72
2021/06/21 13:12:08;;;;;;;6.00;1.73;;;27.80;57.00;;;;;;5026452;28;20452;-72
2021/06/21 13:15:14;;;;;;;7.90;1.80;;;28.10;60.90;;;;;;5030570;28;20490;-72
2021/06/21 13:17:59;;;;;;;10.10;2.27;;;27.80;56.50;;;;;;5027198;28;20424;-72
2021/06/21 13:20:52;;;;;;;11.23;2.07;;;27.40;57.90;;;;;;5035071;28;20466;-72
2021/06/21 13:23:47;;;;;;;8.13;1.90;;;27.20;56.10;;;;;;5032955;28;20523;-72
2021/06/21 13:26:34;;;;;;;3.20;2.00;;;26.90;59.10;;;;;;5037505;28;20426;-72
2021/06/21 13:29:22;;;;;;;5.20;1.70;;;26.70;60.00;;;;;;5031526;28;20444;-72
2021/06/21 13:32:08;;;;;;;8.80;1.97;;;26.60;62.10;;;;;;5032814;28;20455;-72
2021/06/21 13:34:55;;;;;;;5.80;2.13;;;26.40;60.40;;;;;;5030391;28;21213;-72
2021/06/21 13:37:45;;;;;;;6.17;2.30;;;26.60;64.70;;;;;;5030450;28;20813;-72
2021/06/21 13:40:34;;;;;;;4.90;1.63;;;27.10;63.70;;;;;;5039490;28;20452;-72
2021/06/21 13:43:22;;;;;;;4.67;1.93;;;27.60;61.30;;;;;;5030470;28;20460;-72
2021/06/21 13:46:10;;;;;;;5.60;1.67;;;27.70;57.30;;;;;;5035367;28;20962;-72
2021/06/21 13:49:06;;;;;;;4.60;1.87;;;27.70;55.90;;;;;;5041352;28;20463;-72
2021/06/21 13:51:57;;;;;;;4.33;2.10;;;27.70;57.00;;;;;;5031164;28;21280;-73
2021/06/21 13:54:57;;;;;;;5.77;2.23;;;27.70;57.20;;;;;;5032793;28;20478;-72
2021/06/21 13:57:46;;;;;;;5.07;1.87;;;27.40;57.00;;;;;;5029386;28;20910;-72
2021/06/21 14:00:33;;;;;;;5.80;2.03;;;27.00;58.80;;;;;;5035889;28;20475;-72
2021/06/21 14:03:27;;;;;;;3.23;1.70;;;27.00;53.90;;;;;;5033729;28;20491;-71
2021/06/21 14:06:14;;;;;;;5.73;2.30;;;27.30;56.40;;;;;;5027008;28;20468;-72
2021/06/21 14:09:02;;;;;;;5.17;2.37;;;27.70;58.80;;;;;;5035705;28;20554;-72
2021/06/21 14:11:49;;;;;;;6.90;2.40;;;27.80;57.20;;;;;;5036090;28;20790;-73
2021/06/21 14:14:34;;;;;;;4.27;1.70;;;27.50;55.90;;;;;;5026384;28;20498;-73
2021/06/21 14:17:22;;;;;;;4.50;2.10;;;27.40;60.10;;;;;;5037909;28;21005;-73
2021/06/21 14:20:09;;;;;;;2.73;1.37;;;27.30;54.90;;;;;;5028488;28;20954;-73
2021/06/21 14:22:55;;;;;;;10.23;1.93;;;27.30;57.10;;;;;;5032365;28;20579;-72
2021/06/21 14:25:41;;;;;;;3.43;1.93;;;27.30;56.20;;;;;;5030744;28;20461;-73
2021/06/21 14:28:29;;;;;;;7.80;1.73;;;27.10;55.30;;;;;;5032926;28;20448;-72
2021/06/21 14:31:15;;;;;;;7.00;2.20;;;27.20;58.30;;;;;;5036660;28;20451;-72
2021/06/21 14:34:01;;;;;;;4.40;1.80;;;27.30;60.40;;;;;;5032888;28;20471;-73